Time;durP1;ratioP1;P1;durP2;ratioP2;P2;SDS_P1;SDS_P2;PMS_P1;PMS_P2;Temp;Humidity;BMP_temperature;BMP_pressure;BME280_temperature;BME280_humidity;BME280_pressure;Samples;Min_cycle;Max_cycle;Signal;HPM_P1;HPM_P2
2022/08/25 00:01:49;;;;;;;7.60;6.90;;;;;;;24.84;60.35;101835.75;5070042;28;20122;-88
2022/08/25 00:04:16;;;;;;;8.73;7.13;;;;;;;24.82;59.77;101827.03;5061712;28;20470;-88
2022/08/25 00:06:43;;;;;;;6.95;5.97;;;;;;;24.83;59.96;101827.00;5050980;28;20110;-87
2022/08/25 00:09:10;;;;;;;9.85;6.38;;;;;;;24.83;60.32;101826.13;5041911;28;20048;-87
2022/08/25 00:11:38;;;;;;;7.63;6.78;;;;;;;24.83;59.65;101826.13;5079525;28;20052;-86
2022/08/25 00:14:10;;;;;;;8.00;7.20;;;;;;;24.84;59.63;101823.44;5046995;28;20488;-87
2022/08/25 00:19:11;;;;;;;7.70;7.00;;;;;;;24.81;59.65;101813.00;5067373;28;20057;-87
2022/08/25 00:21:37;;;;;;;7.00;6.05;;;;;;;24.81;59.93;101820.03;5034029;28;20450;-86
2022/08/25 00:24:04;;;;;;;8.65;7.25;;;;;;;24.79;59.81;101812.19;5057278;28;20413;-87
2022/08/25 00:26:32;;;;;;;7.63;6.13;;;;;;;24.82;59.98;101816.50;5043430;28;20410;-87
2022/08/25 00:28:57;;;;;;;9.07;7.55;;;;;;;24.82;59.64;101812.13;5027616;28;20083;-85
2022/08/25 00:31:25;;;;;;;9.82;7.90;;;;;;;24.83;59.79;101812.97;5068954;28;20041;-87
2022/08/25 00:33:51;;;;;;;8.93;6.78;;;;;;;24.86;59.72;101812.03;5051387;28;20053;-86
2022/08/25 00:36:20;;;;;;;7.93;6.78;;;;;;;24.84;59.75;101807.66;5072249;28;20521;-87
2022/08/25 00:38:52;;;;;;;9.68;8.55;;;;;;;24.80;59.85;101805.13;5068107;28;20059;-87
2022/08/25 00:41:21;;;;;;;10.23;8.30;;;;;;;24.79;59.54;101803.41;5074230;28;20166;-87
2022/08/25 00:43:56;;;;;;;11.13;7.95;;;;;;;24.80;59.53;101805.13;5072372;28;20055;-87
2022/08/25 00:46:29;;;;;;;7.50;6.40;;;;;;;24.81;59.63;101806.88;5074347;28;20390;-87
2022/08/25 00:49:45;;;;;;;;;;;;;;;;;;;;;
2022/08/25 00:52:09;;;;;;;8.85;6.53;;;;;;;24.82;59.64;101798.97;5081586;28;20086;-87
2022/08/25 00:57:03;;;;;;;7.85;6.78;;;;;;;24.81;59.42;101794.56;5091192;28;20040;-88
2022/08/25 00:59:29;;;;;;;8.23;6.53;;;;;;;24.82;59.43;101795.44;5074793;28;20055;-87
2022/08/25 01:01:55;;;;;;;8.43;6.63;;;;;;;24.81;59.44;101801.63;5073503;28;20048;-87
2022/08/25 01:04:24;;;;;;;8.52;7.57;;;;;;;24.83;59.32;101789.28;5094437;28;20050;-87
2022/08/25 01:06:51;;;;;;;9.60;7.40;;;;;;;24.79;59.63;101788.47;5082484;28;20058;-86
2022/08/25 01:09:18;;;;;;;7.93;7.07;;;;;;;24.81;59.33;101791.09;5082221;28;20055;-86
2022/08/25 01:11:45;;;;;;;7.60;6.68;;;;;;;24.81;59.33;101791.94;5072465;28;20052;-88
2022/08/25 01:14:15;;;;;;;9.75;6.80;;;;;;;24.80;59.35;101787.59;5083352;28;20143;-87
2022/08/25 01:16:42;;;;;;;9.18;7.57;;;;;;;24.81;58.99;101785.81;5071042;28;20052;-87
2022/08/25 01:19:10;;;;;;;8.50;6.78;;;;;;;24.80;59.28;101778.81;5047696;28;20071;-87
2022/08/25 01:24:01;;;;;;;6.88;6.18;;;;;;;24.81;59.04;101777.94;5069411;28;20047;-87
2022/08/25 01:26:33;;;;;;;8.65;6.72;;;;;;;24.79;59.06;101772.69;5065641;28;20044;-87
2022/08/25 01:29:21;;;;;;;6.82;6.03;;;;;;;24.81;58.99;101770.88;5071107;28;20174;-87
2022/08/25 01:32:09;;;;;;;9.40;7.50;;;;;;;24.79;59.28;101763.94;5071394;28;20466;-87
2022/08/25 01:37:01;;;;;;;6.32;5.72;;;;;;;24.82;58.99;101772.63;5092580;28;20686;-87
2022/08/25 01:39:32;;;;;;;8.10;6.43;;;;;;;24.84;59.02;101764.66;5091248;28;20082;-89
2022/08/25 01:42:17;;;;;;;9.73;7.90;;;;;;;24.85;58.92;101774.31;5071485;28;21754;-89
2022/08/25 01:44:49;;;;;;;8.45;6.20;;;;;;;24.81;59.05;101764.75;5072308;28;20094;-89
2022/08/25 01:47:18;;;;;;;8.83;6.83;;;;;;;24.81;59.12;101765.63;5072954;28;20105;-89
2022/08/25 01:49:46;;;;;;;11.95;6.78;;;;;;;24.80;59.16;101766.53;5054002;28;20049;-89
2022/08/25 01:52:18;;;;;;;8.93;7.38;;;;;;;24.79;59.07;101759.53;5068051;28;20108;-85
2022/08/25 01:54:43;;;;;;;10.90;7.75;;;;;;;24.80;59.08;101763.00;5101840;28;20044;-88
2022/08/25 01:57:12;;;;;;;7.20;5.65;;;;;;;24.80;58.81;101755.13;5078310;28;20386;-89
2022/08/25 01:59:40;;;;;;;7.63;6.82;;;;;;;24.79;59.33;101759.53;5085536;28;20424;-87
2022/08/25 02:02:06;;;;;;;7.78;5.75;;;;;;;24.81;59.01;101756.88;5082095;28;20060;-88
2022/08/25 02:04:44;;;;;;;;;;;;;;;;;;;;;
2022/08/25 02:07:03;;;;;;;9.27;7.60;;;;;;;24.80;58.79;101750.75;5075534;28;20129;-89
2022/08/25 02:09:31;;;;;;;8.63;6.90;;;;;;;24.79;59.11;101748.13;5067642;28;20082;-89
2022/08/25 02:12:00;;;;;;;9.25;6.57;;;;;;;24.79;59.10;101749.00;5062168;28;20079;-89
2022/08/25 02:14:27;;;;;;;7.55;6.70;;;;;;;24.80;59.02;101749.84;5050516;28;20456;-90
2022/08/25 02:16:56;;;;;;;7.43;6.30;;;;;;;24.80;58.86;101742.84;5043857;28;20424;-90
2022/08/25 02:19:29;;;;;;;8.40;6.47;;;;;;;24.80;58.75;101742.84;5032240;28;20098;-89
2022/08/25 02:22:01;;;;;;;;;;;;;;;24.81;58.66;101749.81;5054745;28;20045;-89
2022/08/25 02:24:30;;;;;;;7.70;5.57;;;;;;;24.80;58.88;101734.06;5055523;28;19921;-89
2022/08/25 02:26:56;;;;;;;6.65;5.03;;;;;;;24.79;58.60;101741.09;5052531;28;20059;-90
2022/08/25 02:29:22;;;;;;;4.95;4.45;;;;;;;24.80;59.04;101736.69;5065783;28;20452;-89
2022/08/25 02:31:48;;;;;;;6.38;5.07;;;;;;;24.80;58.80;101732.31;5076361;28;20052;-89
2022/08/25 02:34:16;;;;;;;6.32;5.30;;;;;;;24.81;58.66;101733.16;5040784;28;20083;-89
2022/08/25 02:36:42;;;;;;;6.07;4.85;;;;;;;24.81;58.78;101734.03;5039777;28;20052;-90
2022/08/25 02:39:08;;;;;;;9.73;5.55;;;;;;;24.81;58.66;101731.41;5034259;28;20098;-89
2022/08/25 02:41:34;;;;;;;6.30;4.97;;;;;;;24.81;58.87;101736.66;5023498;28;20053;-90
2022/08/25 02:44:04;;;;;;;5.88;4.25;;;;;;;24.82;58.96;101738.41;5058097;28;20049;-90
2022/08/25 02:46:30;;;;;;;5.60;5.05;;;;;;;24.82;58.75;101734.88;5049837;28;20056;-89
2022/08/25 02:48:58;;;;;;;6.65;5.43;;;;;;;24.81;58.91;101735.81;5050524;28;20402;-89
2022/08/25 02:51:30;;;;;;;7.60;5.07;;;;;;;24.79;58.97;101725.31;5075652;28;20047;-89
2022/08/25 02:54:00;;;;;;;7.05;4.80;;;;;;;24.80;58.81;101723.53;5032369;28;20695;-89
2022/08/25 02:56:27;;;;;;;7.55;5.55;;;;;;;24.80;58.66;101720.91;5059571;28;20083;-89
2022/08/25 02:58:52;;;;;;;8.02;4.68;;;;;;;24.78;58.85;101713.06;5050731;28;20487;-89
2022/08/25 03:01:18;;;;;;;6.57;4.97;;;;;;;24.80;58.80;101721.78;5063326;28;20063;-91
2022/08/25 03:03:48;;;;;;;5.65;4.60;;;;;;;24.81;58.76;101706.84;5052338;28;20060;-90
2022/08/25 03:06:23;;;;;;;6.55;5.78;;;;;;;24.81;58.94;101709.47;5056196;28;20052;-90
2022/08/25 03:08:49;;;;;;;5.88;5.28;;;;;;;24.79;58.70;101712.16;5051385;28;20449;-89
2022/08/25 03:11:18;;;;;;;6.05;4.72;;;;;;;24.79;58.73;101704.25;5048906;28;20045;-89
2022/08/25 03:13:43;;;;;;;6.82;5.05;;;;;;;24.79;58.89;101709.50;5048181;28;20052;-90
2022/08/25 03:16:09;;;;;;;6.25;5.22;;;;;;;24.81;58.65;101704.22;5096733;28;20368;-89
2022/08/25 03:18:35;;;;;;;6.18;4.68;;;;;;;24.78;58.92;101710.44;5058445;28;20121;-89
2022/08/25 03:21:02;;;;;;;8.35;4.97;;;;;;;24.80;58.94;101700.72;5056048;28;20076;-90
2022/08/25 03:23:27;;;;;;;8.30;4.93;;;;;;;24.80;58.93;101705.09;5042107;28;20461;-90
2022/08/25 03:28:50;;;;;;;8.25;4.85;;;;;;;24.79;58.75;101696.34;5076405;28;20083;-89
2022/08/25 03:31:16;;;;;;;7.63;4.53;;;;;;;24.79;58.63;101695.50;5092621;28;20079;-89
2022/08/25 03:33:41;;;;;;;6.10;4.70;;;;;;;24.79;58.86;101704.25;5101251;28;20098;-88
2022/08/25 03:36:11;;;;;;;7.03;4.82;;;;;;;24.79;58.65;101692.88;5071297;28;20048;-89
2022/08/25 03:38:37;;;;;;;7.18;5.40;;;;;;;24.77;58.55;101682.38;5068723;28;20094;-87
2022/08/25 03:41:15;;;;;;;6.25;5.15;;;;;;;24.77;58.54;101678.88;5064803;28;20048;-89
2022/08/25 03:43:41;;;;;;;7.63;5.18;;;;;;;24.76;58.87;101675.38;5077048;28;20075;-89
2022/08/25 03:46:07;;;;;;;6.78;5.10;;;;;;;24.79;58.88;101677.06;5048840;28;20048;-89
2022/08/25 03:51:04;;;;;;;6.93;5.20;;;;;;;24.77;58.68;101669.19;5076206;28;20180;-90
2022/08/25 03:53:29;;;;;;;8.35;5.20;;;;;;;24.77;58.74;101666.56;5041927;28;20053;-88
2022/08/25 03:55:56;;;;;;;7.45;4.97;;;;;;;24.77;58.50;101663.94;5042672;28;20110;-89
2022/08/25 03:58:21;;;;;;;6.32;4.72;;;;;;;24.76;58.42;101656.97;5066561;28;20055;-89
2022/08/25 04:00:47;;;;;;;6.20;4.78;;;;;;;24.78;58.67;101655.16;5045409;28;20131;-89
2022/08/25 04:03:12;;;;;;;8.80;4.75;;;;;;;24.77;58.24;101650.78;5056582;28;20098;-88
2022/08/25 04:05:38;;;;;;;8.73;5.63;;;;;;;24.78;58.24;101643.72;5058166;28;20048;-89
2022/08/25 04:08:04;;;;;;;7.25;5.60;;;;;;;24.77;58.32;101644.66;5051462;28;20056;-89
2022/08/25 04:10:30;;;;;;;7.85;5.82;;;;;;;24.76;58.37;101641.16;5059390;28;20079;-88
2022/08/25 04:12:56;;;;;;;7.43;5.57;;;;;;;24.76;58.34;101635.00;4922481;28;3449019;-89
2022/08/25 04:15:22;;;;;;;7.28;5.90;;;;;;;24.78;58.30;101641.09;5047435;28;20056;-89
2022/08/25 04:17:48;;;;;;;9.15;5.45;;;;;;;24.77;58.09;101642.03;5035804;28;20499;-89
2022/08/25 04:20:19;;;;;;;6.30;4.97;;;;;;;24.76;58.23;101643.78;5048882;28;20072;-89
2022/08/25 04:22:48;;;;;;;10.95;5.80;;;;;;;24.77;58.22;101640.25;5071187;28;20406;-90
2022/08/25 04:25:16;;;;;;;7.05;5.03;;;;;;;24.77;58.15;101634.97;5038884;28;20445;-89
2022/08/25 04:27:42;;;;;;;8.50;5.82;;;;;;;24.76;57.98;101629.75;5043054;28;20140;-89
2022/08/25 04:30:10;;;;;;;11.02;5.82;;;;;;;24.75;57.89;101631.53;5055130;28;20135;-89
2022/08/25 04:35:01;;;;;;;6.82;5.30;;;;;;;24.75;57.82;101628.03;5083193;28;20067;-89
2022/08/25 04:37:26;;;;;;;6.40;5.15;;;;;;;24.77;57.76;101637.63;5065219;28;20074;-88
2022/08/25 04:39:52;;;;;;;9.48;5.32;;;;;;;24.76;57.79;101628.00;5081470;28;20040;-86
2022/08/25 04:42:20;;;;;;;7.57;5.53;;;;;;;24.77;57.74;101631.50;5060325;28;20048;-87
2022/08/25 04:44:46;;;;;;;8.38;5.43;;;;;;;24.75;57.63;101631.53;5046257;28;20068;-87
2022/08/25 04:47:12;;;;;;;10.55;5.55;;;;;;;24.77;57.77;101632.34;5037755;28;20047;-89
2022/08/25 04:49:40;;;;;;;6.75;4.78;;;;;;;24.77;57.60;101637.63;5043353;28;20045;-88
2022/08/25 04:52:05;;;;;;;9.65;4.63;;;;;;;24.76;57.71;101629.75;5044564;28;20056;-82
2022/08/25 04:54:34;;;;;;;7.53;5.15;;;;;;;24.78;57.59;101636.72;5029842;28;20140;-84
2022/08/25 04:56:59;;;;;;;12.75;7.50;;;;;;;24.72;57.50;101639.50;5049402;28;20088;-87
2022/08/25 04:59:26;;;;;;;10.38;6.65;;;;;;;24.77;57.58;101637.63;5049043;28;20079;-86
2022/08/25 05:01:52;;;;;;;14.55;6.88;;;;;;;24.71;57.39;101636.91;5059730;28;20044;-85
2022/08/25 05:04:20;;;;;;;11.40;6.45;;;;;;;24.62;57.43;101640.66;5042049;28;20053;-86
2022/08/25 05:06:50;;;;;;;9.45;6.80;;;;;;;24.63;57.54;101640.63;5063836;28;20052;-86
2022/08/25 05:09:18;;;;;;;39.30;12.30;;;;;;;24.64;57.21;101641.47;5064127;28;20047;-86
2022/08/25 05:11:46;;;;;;;36.40;12.82;;;;;;;24.71;57.28;101640.41;5051815;28;20040;-85
2022/08/25 05:14:14;;;;;;;21.65;8.68;;;;;;;24.64;56.41;101642.34;5046032;28;20040;-85
2022/08/25 05:16:43;;;;;;;17.92;6.53;;;;;;;24.53;55.33;101641.75;5047771;28;20049;-85
2022/08/25 05:19:09;;;;;;;11.05;5.95;;;;;;;24.49;55.10;101639.25;5054000;28;20131;-80
2022/08/25 05:21:35;;;;;;;12.30;6.18;;;;;;;24.47;54.39;101641.88;5065824;28;20128;-86
2022/08/25 05:24:01;;;;;;;10.32;6.07;;;;;;;24.45;53.57;101643.69;5063310;28;21612;-91
2022/08/25 05:26:30;;;;;;;9.52;5.53;;;;;;;24.41;53.44;101636.78;5062650;28;20040;-87
2022/08/25 05:29:03;;;;;;;7.95;5.22;;;;;;;24.45;53.33;101643.69;5065706;28;20037;-87
2022/08/25 05:31:30;;;;;;;8.20;4.80;;;;;;;24.44;53.12;101647.25;5053439;28;20434;-87
2022/08/25 05:33:56;;;;;;;8.35;4.93;;;;;;;24.43;53.12;101645.50;5030538;28;21148;-87
2022/08/25 05:36:23;;;;;;;7.18;4.85;;;;;;;24.41;53.12;101652.56;5036438;28;20059;-86
2022/08/25 05:38:52;;;;;;;7.97;4.90;;;;;;;24.42;52.87;101654.31;5049004;28;20052;-84
2022/08/25 05:41:20;;;;;;;7.20;4.60;;;;;;;24.43;52.56;101653.38;5050137;28;20044;-85
2022/08/25 05:43:48;;;;;;;7.38;4.30;;;;;;;24.46;52.46;101653.31;5047806;28;20041;-85
2022/08/25 05:46:15;;;;;;;6.63;4.38;;;;;;;24.49;51.77;101648.00;5060990;28;20048;-85
2022/08/25 05:48:41;;;;;;;6.45;4.32;;;;;;;24.46;51.54;101636.69;5040148;28;20048;-86
2022/08/25 05:51:09;;;;;;;7.45;4.35;;;;;;;24.46;51.59;101641.94;5077917;28;20052;-85
2022/08/25 05:56:04;;;;;;;10.02;4.35;;;;;;;24.84;50.10;101644.44;5051512;28;20648;-84
2022/08/25 05:58:30;;;;;;;8.60;4.40;;;;;;;25.00;49.13;101641.41;5070242;28;20098;-83
2022/08/25 06:00:57;;;;;;;6.80;4.22;;;;;;;25.16;48.80;101641.81;5081712;28;20154;-83
2022/08/25 06:03:22;;;;;;;9.25;4.15;;;;;;;25.23;48.35;101638.97;5062761;28;20040;-84
2022/08/25 06:05:49;;;;;;;8.35;4.05;;;;;;;25.39;47.81;101639.41;5054900;28;20044;-83
2022/08/25 06:08:15;;;;;;;11.93;4.40;;;;;;;25.41;47.64;101642.88;5041498;28;20482;-83
2022/08/25 06:10:40;;;;;;;7.13;4.00;;;;;;;25.66;47.15;101636.84;5042141;28;20052;-83
2022/08/25 06:13:06;;;;;;;6.75;4.25;;;;;;;25.85;46.79;101652.97;5039899;28;20109;-83
2022/08/25 06:15:35;;;;;;;10.10;4.25;;;;;;;26.39;45.06;101644.19;5063916;28;20048;-82
2022/08/25 06:18:01;;;;;;;10.50;4.35;;;;;;;27.01;43.67;101645.53;5054929;28;20048;-83
2022/08/25 06:20:29;;;;;;;8.32;3.92;;;;;;;27.33;42.60;101637.34;5036100;28;20054;-83
2022/08/25 06:22:55;;;;;;;10.43;4.10;;;;;;;27.55;42.21;101643.53;5040938;28;20053;-83
2022/08/25 06:25:23;;;;;;;7.05;4.10;;;;;;;27.29;42.77;101639.25;5083053;28;20090;-83
2022/08/25 06:27:48;;;;;;;18.85;5.93;;;;;;;28.05;41.38;101624.81;5067578;28;20138;-81
2022/08/25 06:30:17;;;;;;;17.35;7.13;;;;;;;27.49;42.62;101630.56;5056343;28;20550;-80
2022/08/25 06:32:44;;;;;;;15.85;6.80;;;;;;;26.33;45.60;101620.63;5055569;28;20105;-79
2022/08/25 06:35:12;;;;;;;14.07;4.85;;;;;;;25.84;47.08;101625.69;5056777;28;20052;-80
2022/08/25 06:37:40;;;;;;;9.68;4.97;;;;;;;25.66;47.84;101624.50;5053969;28;20044;-80
2022/08/25 06:40:06;;;;;;;10.50;4.30;;;;;;;25.82;47.57;101624.88;5047538;28;20080;-79
2022/08/25 06:42:32;;;;;;;8.43;4.75;;;;;;;26.17;47.22;101622.06;5056107;28;20155;-78
2022/08/25 06:45:01;;;;;;;7.72;4.40;;;;;;;26.30;46.54;101620.72;5046650;28;20057;-79
2022/08/25 06:47:26;;;;;;;10.45;5.10;;;;;;;26.03;47.26;101619.88;5050010;28;20118;-79
2022/08/25 06:49:52;;;;;;;14.35;5.00;;;;;;;27.30;44.34;101625.13;5064541;28;20068;-78
2022/08/25 06:52:18;;;;;;;8.23;5.47;;;;;;;27.73;43.79;101626.09;5037229;28;20441;-79
2022/08/25 06:54:44;;;;;;;9.77;5.22;;;;;;;28.01;42.78;101622.34;5035289;28;20473;-79
2022/08/25 06:57:10;;;;;;;8.55;4.95;;;;;;;27.17;45.15;101622.03;5040663;28;20045;-78
2022/08/25 07:02:07;;;;;;;12.43;5.30;;;;;;;26.22;47.67;101630.69;5078524;28;20137;-79
2022/08/25 07:04:33;;;;;;;9.50;4.95;;;;;;;26.01;48.37;101629.63;5080859;28;20098;-78
2022/08/25 07:06:59;;;;;;;9.20;5.13;;;;;;;26.04;48.21;101627.75;5066409;28;20151;-79
2022/08/25 07:09:25;;;;;;;8.18;4.70;;;;;;;26.20;47.89;101629.88;5062623;28;20414;-79
2022/08/25 07:11:51;;;;;;;8.30;4.53;;;;;;;26.18;48.03;101622.00;5042453;28;20113;-79
2022/08/25 07:14:18;;;;;;;6.18;4.20;;;;;;;26.38;47.74;101628.38;5051224;28;20045;-79
2022/08/25 07:16:44;;;;;;;6.50;4.45;;;;;;;26.55;47.04;101631.31;5066801;28;20070;-79
2022/08/25 07:19:10;;;;;;;9.40;4.40;;;;;;;26.35;48.06;101629.38;5057648;28;20478;-79
2022/08/25 07:24:05;;;;;;;9.60;4.45;;;;;;;26.57;47.62;101628.66;5078262;28;20075;-78
2022/08/25 07:26:35;;;;;;;7.82;4.00;;;;;;;26.57;47.52;101626.88;5052027;28;20086;-79
2022/08/25 07:29:04;;;;;;;7.13;4.07;;;;;;;26.63;47.64;101628.41;5065553;28;20068;-78
2022/08/25 07:31:30;;;;;;;6.88;4.05;;;;;;;26.77;47.22;101627.94;5060343;28;20061;-79
2022/08/25 07:36:43;;;;;;;8.20;4.07;;;;;;;27.02;46.80;101620.84;5053072;28;20098;-79
2022/08/25 07:39:09;;;;;;;8.00;4.40;;;;;;;27.04;46.83;101623.41;5066800;28;20036;-79
2022/08/25 07:44:01;;;;;;;7.80;4.03;;;;;;;27.21;46.00;101618.41;5078016;28;20056;-79
2022/08/25 07:46:27;;;;;;;6.38;4.07;;;;;;;27.31;46.21;101620.69;5057445;28;20125;-79
2022/08/25 07:48:55;;;;;;;5.45;3.90;;;;;;;27.37;46.15;101615.16;5050641;28;20102;-79
2022/08/25 07:51:23;;;;;;;4.07;3.55;;;;;;;27.36;45.76;101616.97;5056252;28;20461;-79
2022/08/25 07:53:52;;;;;;;6.18;3.75;;;;;;;27.34;45.93;101616.16;5028178;28;20055;-80
2022/08/25 07:56:18;;;;;;;5.90;3.70;;;;;;;27.26;45.81;101619.09;5041543;28;20044;-80
2022/08/25 07:58:44;;;;;;;6.75;3.78;;;;;;;27.28;45.87;101616.38;5044523;28;20066;-80
2022/08/25 08:01:18;;;;;;;5.93;3.78;;;;;;;27.23;45.83;101621.00;5080712;28;20102;-80
2022/08/25 08:03:44;;;;;;;6.75;3.65;;;;;;;27.13;46.27;101606.38;5047522;28;20096;-80
2022/08/25 08:06:12;;;;;;;5.07;3.45;;;;;;;27.14;46.10;101610.75;5054436;28;20045;-79
2022/08/25 08:08:47;;;;;;;7.63;3.42;;;;;;;27.16;45.98;101611.56;5050257;28;20147;-79
2022/08/25 08:11:39;;;;;;;5.43;3.22;;;;;;;27.12;46.46;101612.59;5056161;28;20077;-79
2022/08/25 08:14:02;;;;;;;6.07;3.30;;;;;;;27.05;46.33;101620.72;5072978;28;20525;-80
2022/08/25 08:16:30;;;;;;;5.00;3.80;;;;;;;27.00;46.46;101612.13;5048890;28;20115;-80
2022/08/25 08:18:59;;;;;;;6.03;3.50;;;;;;;27.01;46.81;101607.69;5042313;28;20487;-80
2022/08/25 08:21:28;;;;;;;4.50;3.10;;;;;;;26.96;47.01;101614.91;5054895;28;20060;-80
2022/08/25 08:23:54;;;;;;;5.00;3.10;;;;;;;26.91;47.03;101611.59;5053645;28;20048;-80
2022/08/25 08:26:23;;;;;;;3.60;3.08;;;;;;;26.78;47.04;101609.38;5072760;28;20052;-80
2022/08/25 08:28:50;;;;;;;4.15;3.10;;;;;;;26.77;47.27;101607.69;5009462;28;1247827;-80
2022/08/25 08:31:19;;;;;;;4.75;3.45;;;;;;;26.78;47.34;101609.38;5055084;28;20071;-80
2022/08/25 08:33:47;;;;;;;4.55;3.05;;;;;;;26.66;47.69;101607.22;5043014;28;20041;-80
2022/08/25 08:36:15;;;;;;;5.78;3.22;;;;;;;26.66;47.83;101605.41;5063177;28;20045;-80
2022/08/25 08:38:42;;;;;;;4.30;3.08;;;;;;;26.63;47.73;101604.66;5057693;28;20098;-80
2022/08/25 08:47:19;;;;;;;5.90;3.10;;;;;;;26.48;47.91;101604.28;5073110;28;21126;-80
2022/08/25 08:49:57;;;;;;;;;;;;;;;26.38;48.39;101597.56;5070415;28;20132;-80
2022/08/25 08:52:37;;;;;;;4.88;3.05;;;;;;;26.39;48.17;101601.06;5047435;28;19960;-80
2022/08/25 08:55:15;;;;;;;3.50;2.60;;;;;;;26.35;48.13;101605.63;5035287;28;20379;-80
2022/08/25 09:00:07;;;;;;;4.03;2.90;;;;;;;26.27;48.52;101605.00;5077942;28;20109;-80
2022/08/25 09:05:09;;;;;;;3.85;2.50;;;;;;;26.18;48.76;101600.91;5077011;28;20048;-80
2022/08/25 09:10:05;;;;;;;5.00;2.70;;;;;;;26.17;48.76;101601.81;5077244;28;20147;-79
2022/08/25 09:15:04;;;;;;;3.50;2.50;;;;;;;26.16;48.96;101596.59;5077002;28;20084;-79
2022/08/25 09:20:22;;;;;;;3.45;2.60;;;;;;;26.18;48.97;101600.06;5060099;28;20476;-79
2022/08/25 09:23:16;;;;;;;3.47;2.53;;;;;;;26.17;48.76;101596.53;5052176;28;20053;-79
2022/08/25 09:26:16;;;;;;;3.95;2.65;;;;;;;26.18;48.73;101597.41;5052920;28;20136;-78
2022/08/25 09:28:54;;;;;;;3.22;2.22;;;;;;;26.14;48.95;101594.00;5045810;28;20072;-79
2022/08/25 09:31:34;;;;;;;4.70;2.90;;;;;;;26.06;49.36;101591.59;5052099;28;20051;-79
2022/08/25 09:34:02;;;;;;;3.22;2.42;;;;;;;26.00;49.41;101594.47;5069297;28;20044;-79
2022/08/25 09:36:28;;;;;;;4.03;2.70;;;;;;;26.00;49.55;101594.47;5063894;28;20052;-79
2022/08/25 09:39:00;;;;;;;3.25;2.40;;;;;;;25.99;49.47;101591.88;5050599;28;20047;-79
2022/08/25 09:44:04;;;;;;;4.70;2.25;;;;;;;26.01;49.40;101582.16;5059745;28;20076;-79
2022/08/25 09:46:30;;;;;;;4.03;2.60;;;;;;;25.99;49.55;101586.59;5048627;28;20053;-79
2022/08/25 09:49:11;;;;;;;3.30;2.60;;;;;;;25.98;49.48;101582.22;5041481;28;20052;-79
2022/08/25 09:51:41;;;;;;;3.75;2.55;;;;;;;25.96;49.35;101584.94;5048366;28;20068;-80
2022/08/25 09:54:20;;;;;;;4.00;2.45;;;;;;;25.95;49.49;101588.47;5041807;28;20051;-80
2022/08/25 09:56:50;;;;;;;3.20;2.47;;;;;;;25.95;49.43;101579.72;5040605;28;20053;-80
2022/08/25 09:59:33;;;;;;;3.55;2.65;;;;;;;25.94;49.64;101576.22;5070345;28;20040;-80
2022/08/25 10:02:01;;;;;;;3.60;2.42;;;;;;;25.96;49.46;101578.81;5057375;28;20113;-80
2022/08/25 10:04:35;;;;;;;5.35;2.70;;;;;;;25.92;49.55;101575.41;5051768;28;20059;-80
2022/08/25 10:07:17;;;;;;;3.63;2.55;;;;;;;25.91;49.73;101570.16;5079889;28;20055;-80
2022/08/25 10:09:54;;;;;;;4.38;2.50;;;;;;;25.90;49.63;101573.72;5061002;28;20068;-79
2022/08/25 10:15:30;;;;;;;3.40;2.40;;;;;;;25.88;49.58;101565.88;5059432;28;20058;-79
2022/08/25 10:17:56;;;;;;;3.20;2.30;;;;;;;25.89;49.49;101574.63;5049372;28;20101;-79
2022/08/25 10:20:25;;;;;;;2.88;2.10;;;;;;;25.88;49.44;101568.50;5035263;28;20052;-80
2022/08/25 10:23:11;;;;;;;4.13;2.45;;;;;;;25.87;49.70;101561.47;5065822;28;20086;-80
2022/08/25 10:25:45;;;;;;;3.22;2.30;;;;;;;25.85;49.55;101558.88;5050901;28;20399;-80
2022/08/25 10:28:31;;;;;;;4.55;2.47;;;;;;;25.85;49.60;101556.25;5046879;28;20052;-79
2022/08/25 10:31:09;;;;;;;3.47;2.30;;;;;;;25.85;49.51;101548.34;5044884;28;20164;-80
2022/08/25 10:33:37;;;;;;;3.67;2.20;;;;;;;25.83;49.23;101546.69;5074041;28;20468;-80
2022/08/25 10:36:08;;;;;;;4.63;2.30;;;;;;;25.84;49.46;101548.38;5049385;28;20052;-80
2022/08/25 10:47:27;;;;;;;3.22;2.38;;;;;;;25.85;49.46;101539.56;5059047;28;20064;-80
2022/08/25 10:50:22;;;;;;;4.97;1.88;;;;;;;25.84;49.49;101525.50;5051892;28;20052;-78
2022/08/25 10:53:03;;;;;;;2.35;2.10;;;;;;;25.82;49.62;101527.34;5065859;28;20503;-80
2022/08/25 10:58:39;;;;;;;2.25;2.03;;;;;;;25.86;49.38;101525.47;5055095;28;20518;-80
2022/08/25 11:01:33;;;;;;;3.97;2.50;;;;;;;25.84;49.42;101519.38;5051963;28;20052;-80
2022/08/25 11:04:06;;;;;;;2.47;1.92;;;;;;;25.85;49.29;101524.63;5047411;28;20056;-80
2022/08/25 11:06:37;;;;;;;5.60;2.15;;;;;;;25.84;49.37;101519.38;5059029;28;20131;-79
2022/08/25 11:09:09;;;;;;;4.57;2.00;;;;;;;25.86;49.32;101520.19;5049443;28;20049;-80
2022/08/25 11:14:17;;;;;;;3.25;2.30;;;;;;;25.86;49.22;101515.78;5067027;28;20056;-80
2022/08/25 11:17:05;;;;;;;3.47;2.10;;;;;;;25.89;49.15;101519.25;5067141;28;20049;-79
2022/08/25 11:22:03;;;;;;;5.00;1.95;;;;;;;25.89;49.26;101516.63;5071837;28;20083;-80
2022/08/25 11:27:04;;;;;;;4.00;2.03;;;;;;;25.91;49.01;101515.66;5069976;28;20044;-80
2022/08/25 11:29:35;;;;;;;2.85;2.05;;;;;;;25.92;48.72;101513.91;5050781;28;20045;-80
2022/08/25 11:32:02;;;;;;;4.43;1.98;;;;;;;25.93;48.85;101519.09;5049903;28;20053;-79
2022/08/25 11:34:34;;;;;;;2.88;1.90;;;;;;;25.93;49.03;101508.56;5046952;28;20052;-80
2022/08/25 11:37:08;;;;;;;2.95;2.20;;;;;;;25.94;48.86;101512.91;5052310;28;20456;-80
2022/08/25 11:39:40;;;;;;;3.92;2.20;;;;;;;25.95;48.82;101508.50;5080799;28;20047;-80
2022/08/25 11:42:30;;;;;;;2.97;1.83;;;;;;;25.99;48.63;101516.25;5071984;28;20122;-80
2022/08/25 11:45:15;;;;;;;3.65;1.80;;;;;;;25.99;48.67;101510.97;5068510;28;20044;-80
2022/08/25 11:47:46;;;;;;;3.03;1.90;;;;;;;26.03;48.61;101511.75;5049965;28;20084;-80
2022/08/25 11:53:10;;;;;;;2.42;2.00;;;;;;;26.06;48.53;101509.00;5069845;28;21192;-81
2022/08/25 11:55:35;;;;;;;2.53;1.95;;;;;;;26.07;48.49;101516.00;5054716;28;20049;-80
2022/08/25 12:01:03;;;;;;;3.17;1.90;;;;;;;26.09;48.48;101515.94;5073935;28;20067;-80
2022/08/25 12:03:31;;;;;;;3.55;2.08;;;;;;;26.10;48.52;101510.59;5058388;28;20040;-80
2022/08/25 12:06:18;;;;;;;3.55;2.00;;;;;;;26.09;48.41;101500.09;5043628;28;20296;-80
2022/08/25 12:09:01;;;;;;;3.30;2.10;;;;;;;26.11;48.42;101508.81;5070028;28;20567;-80
2022/08/25 12:14:35;;;;;;;3.25;1.90;;;;;;;26.10;48.51;101497.41;5069977;28;20084;-80
2022/08/25 12:17:19;;;;;;;2.40;1.85;;;;;;;26.12;48.67;101500.00;5063249;28;20067;-81
2022/08/25 12:19:55;;;;;;;2.58;1.90;;;;;;;26.06;48.45;101493.16;5076916;28;20070;-80
2022/08/25 12:22:21;;;;;;;2.92;2.00;;;;;;;26.05;48.67;101487.03;5071517;28;20048;-80
2022/08/25 12:24:57;;;;;;;2.58;1.88;;;;;;;26.03;48.85;101495.91;5061233;28;20058;-80
2022/08/25 12:27:23;;;;;;;2.80;2.00;;;;;;;26.04;48.83;101500.28;5050277;28;20053;-80
2022/08/25 12:29:49;;;;;;;3.75;2.00;;;;;;;26.01;49.01;101493.34;5069305;28;20056;-80
2022/08/25 12:32:32;;;;;;;2.60;1.80;;;;;;;26.01;48.80;101493.34;5055315;28;20055;-80
2022/08/25 12:35:28;;;;;;;2.65;1.98;;;;;;;26.02;48.89;101494.19;5057126;28;20145;-81
2022/08/25 12:38:01;;;;;;;2.35;1.73;;;;;;;26.01;48.99;101490.69;5067621;28;20044;-80
2022/08/25 12:43:07;;;;;;;3.55;1.88;;;;;;;26.00;48.97;101502.16;4960080;28;3361468;-82
2022/08/25 12:48:26;;;;;;;3.10;2.08;;;;;;;26.01;49.07;101500.38;5060924;28;20060;-80
2022/08/25 12:51:18;;;;;;;2.05;1.83;;;;;;;26.01;49.12;101497.75;5052866;28;20051;-79
2022/08/25 12:53:46;;;;;;;2.00;1.65;;;;;;;26.01;49.11;101501.25;5077781;28;20049;-80
2022/08/25 12:56:37;;;;;;;2.72;1.80;;;;;;;26.01;48.82;101497.75;5074818;28;20054;-80
2022/08/25 12:59:31;;;;;;;3.38;1.80;;;;;;;26.03;48.98;101499.41;5066192;28;20077;-80
2022/08/25 13:02:09;;;;;;;3.90;1.85;;;;;;;26.03;49.10;101504.69;5060630;28;20916;-80
2022/08/25 13:07:15;;;;;;;3.10;2.00;;;;;;;26.03;48.95;101499.41;5069019;28;20051;-80
2022/08/25 13:10:14;;;;;;;2.13;1.58;;;;;;;26.03;49.26;101502.06;5043263;28;20127;-79
2022/08/25 13:12:43;;;;;;;2.67;1.83;;;;;;;26.03;49.02;101507.31;5048991;28;20052;-78